زاخو, العراق

01:42 PM AST on أعس×س 20, 2014 (GMT +0300)
Sirnak | Change Station
CLOSE
Current Station
Airport
Location: Sirnak,
Elevation: 0 ft
Nearby Weather Stations

Elev 0 ft 37.36 °N, 42.06 °E | Updated 1 hour ago

Clear
صافية
100 °F
Feels Like 100 °F
N
9
ريح متغير ريح from جنوب

هذا اليوم
High -- | Low -- °F
--% Chance of Precip.
Yesterday
High -- | Low -- °F
Precip. -- في
5:29 AM 6:55 PM
الهلال الأخير, 22% visible
الضغط 29.89 في
وضوح الرؤية 2.8 أميال
سحابات
نقطة الندى 48 °F
الرطوبة 17%
Rainfall 0.00 في
عمق الثلج Not available.
الأشعة فوق البنفسجية Not available.
Pollen Not available.
جودة الهواء Not available.
Flu Activity Not available.
METAR LTCV 200850Z 19008KT 160V260 4500 DU NSC 38/09 Q1012

More Conditions Fewer Conditions

الضغط 29.89 في
وضوح الرؤية 2.8 أميال
سحابات
نقطة الندى 48 °F
الرطوبة 17%
Rainfall 0.00 في
عمق الثلج Not available.
الأشعة فوق البنفسجية Not available.
Pollen Not available.
جودة الهواء Not available.
Flu Activity Not available.
METAR LTCV 200850Z 19008KT 160V260 4500 DU NSC 38/09 Q1012

More Conditions Fewer Conditions

10-Day Weather Forecast

Almanac

علم الفلك

Aug. 20, 2014 Rise Set
Actual Time 5:29 AM AST 6:55 PM AST
Civil Twilight 5:02 AM AST 7:22 PM AST
Nautical Twilight 4:29 AM AST 7:55 PM AST
Astronomical Twilight 3:55 AM AST 8:29 PM AST
قمر 12:54 AM AST 3:20 PM AST
Length Of Visible Light 14h 19m
طول الیوم
13h 25m
Tomorrow will be 2m 9s shorter.
الهلال الأخير, 22% of the Moon is Illuminated
هذا اليوم
الهلال الأخير
Aug 25
New
Sep 2
الربع الاول
Sep 8
بدر
Sep 15
الربع الآخر

Yesterday's Extremes

Country Highs Country Lows

Community

WunderPhotos

Upload Photos

1,745,605 photos uploaded!

Nearby

جودة الهواء

Not available.

عمق الثلج

Not available.

Earthquake Activity

City Distance Mag. Time & Date
No recent earthquake activity has been reported nearby.
Minimum magnitude displayed is 2.5.

Coastal Water Temperatures

مكان درجات الحرارة
No Stations Reporting

Nearby Weather Stations